.
WxDataArchive / Data Records for 2015-09-19
2015-09-18 September 2015 2015-09-20

Data Records for Saturday, 19 September 2015

Time	Temp	Chill	HIndex	Humid	Dewpt	 Wind 	HiWind	WindDir	Rain 	Barom 
-----	----	-----	------	-----	-----	------	------	-------	-----	----- 
00:00	71.1	71.1	71.1	89	67.7	0	0	---	0.00	29.807 
00:05	71.1	71.1	71.1	89	67.7	0	0	---	0.00	29.807 
00:10	71.1	71.1	71.1	89	67.7	0	2	292	0.00	29.807 
00:15	70.9	70.9	70.9	90	67.8	0	2	292	0.00	29.816 
00:20	70.8	70.8	70.8	90	67.7	0	1	292	0.00	29.816 
00:25	70.8	70.8	70.8	90	67.7	0	1	292	0.01	29.816 
00:30	70.8	70.8	70.8	91	68.0	0	0	---	0.00	29.801 
00:35	70.6	70.6	70.6	91	67.8	0	0	---	0.00	29.801 
00:40	70.6	70.6	70.6	91	67.8	0	2	292	0.00	29.801 
00:45	70.6	70.6	70.6	91	67.8	0	1	292	0.01	29.798 
00:50	70.4	70.4	70.4	91	67.6	0	2	0	0.00	29.798 
00:55	70.4	70.4	70.4	92	68.0	0	3	248	0.01	29.798 
01:00	70.4	70.4	70.4	92	68.0	0	3	248	0.00	29.796 
01:05	70.4	70.4	70.4	92	68.0	0	2	248	0.01	29.796 
01:10	70.4	70.4	70.4	92	68.0	0	1	248	0.02	29.796 
01:15	70.3	70.3	70.3	92	67.9	0	1	248	0.01	29.787 
01:20	70.3	70.3	70.3	92	67.9	0	0	---	0.01	29.787 
01:25	69.9	69.9	69.9	92	67.5	0	1	248	0.01	29.787 
01:30	69.8	69.8	69.8	92	67.4	0	0	---	0.00	29.769 
01:35	69.4	69.4	69.4	92	67.0	0	2	248	0.01	29.769 
01:40	69.1	69.1	69.1	91	66.4	0	4	90	0.00	29.769 
01:45	68.6	68.6	68.6	91	65.9	0	2	90	0.00	29.752 
01:50	68.1	68.1	68.1	90	65.0	0	2	90	0.01	29.752 
01:55	67.8	67.8	67.8	90	64.8	0	3	90	0.00	29.752 
02:00	67.6	67.6	67.6	90	64.6	0	1	90	0.00	29.744 
02:05	67.4	67.4	67.4	91	64.7	0	1	90	0.01	29.744 
02:10	67.3	67.3	67.3	91	64.6	0	1	90	0.00	29.744 
02:15	67.1	67.1	67.1	91	64.4	0	1	90	0.01	29.744 
02:20	67.1	67.1	67.1	92	64.7	0	2	90	0.01	29.744 
02:25	67.1	67.1	67.1	92	64.7	0	2	90	0.01	29.744 
02:30	67.1	67.1	67.1	92	64.7	0	5	0	0.02	29.742 
02:35	66.9	66.9	66.9	92	64.5	0	4	270	0.00	29.742 
02:40	66.9	66.9	66.9	92	64.5	0	1	270	0.01	29.742 
02:45	66.9	66.9	66.9	92	64.5	0	0	---	0.00	29.727 
02:50	66.9	66.9	66.9	92	64.5	0	1	270	0.00	29.727 
02:55	66.8	66.8	66.8	93	64.7	0	1	270	0.00	29.727 
03:00	66.8	66.8	66.8	93	64.7	0	1	270	0.00	29.730 
03:05	66.8	66.8	66.8	93	64.7	0	2	270	0.00	29.730 
03:10	66.8	66.8	66.8	93	64.7	0	1	0	0.00	29.730 
03:15	66.6	66.6	66.6	93	64.5	0	1	338	0.00	29.728 
03:20	66.6	66.6	66.6	93	64.5	0	1	0	0.00	29.728 
03:25	66.6	66.6	66.6	93	64.5	0	1	0	0.00	29.728 
03:30	66.4	66.4	66.4	93	64.3	0	1	0	0.00	29.727 
03:35	66.4	66.4	66.4	93	64.3	0	1	0	0.00	29.727 
03:40	66.3	66.3	66.3	93	64.2	0	0	---	0.00	29.727 
03:45	66.3	66.3	66.3	93	64.2	0	1	0	0.00	29.719 
03:50	66.3	66.3	66.3	93	64.2	0	2	0	0.02	29.719 
03:55	66.3	66.3	66.3	93	64.2	0	2	338	0.09	29.719 
04:00	66.3	66.3	66.3	93	64.2	3	7	270	0.01	29.761 
04:05	66.0	66.0	66.0	93	63.9	7	15	292	0.32	29.761 
04:10	65.8	65.8	65.8	94	64.0	6	11	270	0.34	29.761 
04:15	65.6	65.6	65.6	94	63.8	1	4	270	0.10	29.743 
04:20	65.8	65.8	65.8	94	64.0	0	1	270	0.03	29.743 
04:25	65.8	65.8	65.8	95	64.3	0	3	270	0.01	29.743 
04:30	65.6	65.6	65.6	95	64.1	0	1	270	0.01	29.735 
04:35	65.6	65.6	65.6	95	64.1	0	1	270	0.01	29.735 
04:40	65.5	65.5	65.5	95	64.0	0	1	270	0.01	29.735 
04:45	65.5	65.5	65.5	95	64.0	0	1	270	0.01	29.720 
04:50	65.6	65.6	65.6	95	64.1	0	3	270	0.00	29.720 
04:55	65.6	65.6	65.6	95	64.1	0	0	---	0.00	29.720 
05:00	65.6	65.6	65.6	95	64.1	0	0	---	0.01	29.717 
05:05	65.6	65.6	65.6	95	64.1	0	1	270	0.01	29.717 
05:10	65.6	65.6	65.6	95	64.1	0	0	---	0.00	29.717 
05:15	65.6	65.6	65.6	95	64.1	0	1	270	0.01	29.714 
05:20	65.8	65.8	65.8	96	64.6	0	1	270	0.01	29.714 
05:25	66.0	66.0	66.0	96	64.8	0	3	270	0.01	29.714 
05:30	66.3	66.3	66.3	96	65.1	0	1	270	0.00	29.717 
05:35	66.4	66.4	66.4	96	65.2	0	2	270	0.00	29.717 
05:40	66.6	66.6	66.6	96	65.4	0	1	270	0.01	29.717 
05:45	66.6	66.6	66.6	96	65.4	0	1	270	0.00	29.713 
05:50	66.8	66.8	66.8	96	65.6	0	2	270	0.00	29.713 
05:55	66.8	66.8	66.8	96	65.6	0	1	270	0.00	29.713 
06:00	66.8	66.8	66.8	96	65.6	0	1	270	0.00	29.696 
06:05	66.8	66.8	66.8	96	65.6	0	2	338	0.01	29.696 
06:10	66.8	66.8	66.8	96	65.6	0	1	338	0.01	29.696 
06:15	66.8	66.8	66.8	96	65.6	0	2	338	0.00	29.668 
06:20	66.8	66.8	66.8	96	65.6	0	2	0	0.01	29.668 
06:25	66.8	66.8	66.8	96	65.6	0	3	315	0.01	29.668 
06:30	66.8	66.8	66.8	96	65.6	1	3	315	0.01	29.699 
06:35	66.9	66.9	66.9	96	65.7	0	1	292	0.01	29.699 
06:40	66.9	66.9	66.9	96	65.7	0	1	292	0.00	29.699 
06:45	66.9	66.9	66.9	96	65.7	0	1	292	0.00	29.700 
06:50	67.1	67.1	67.1	96	65.9	0	1	292	0.00	29.700 
06:55	67.3	67.3	67.3	96	66.1	0	3	292	0.01	29.700 
07:00	67.4	67.4	67.4	96	66.2	0	1	292	0.01	29.710 
07:05	67.6	67.6	67.6	96	66.4	0	1	292	0.01	29.710 
07:10	67.8	67.8	67.8	96	66.6	0	3	292	0.01	29.710 
07:15	67.9	67.9	67.9	96	66.7	0	2	270	0.01	29.699 
07:20	67.9	67.9	67.9	96	66.7	0	1	270	0.01	29.699 
07:25	68.1	68.1	68.1	96	66.9	0	5	270	0.01	29.699 
07:30	68.1	68.1	68.1	96	66.9	0	1	270	0.00	29.709 
07:35	68.3	68.3	68.3	96	67.1	0	2	270	0.00	29.709 
07:40	68.3	68.3	68.3	96	67.1	0	2	270	0.01	29.709 
07:45	68.3	68.3	68.3	96	67.1	0	2	270	0.00	29.700 
07:50	68.3	68.3	68.3	96	67.1	0	2	0	0.00	29.700 
07:55	68.3	68.3	68.3	96	67.1	0	3	292	0.00	29.700 
08:00	68.3	68.3	68.3	96	67.1	0	1	292	0.00	29.702 
08:05	68.3	68.3	68.3	96	67.1	0	1	292	0.00	29.702 
08:10	68.3	68.3	68.3	96	67.1	0	1	292	0.00	29.702 
08:15	68.3	68.3	68.3	96	67.1	0	0	---	0.00	29.700 
08:20	68.3	68.3	68.3	96	67.1	0	1	292	0.00	29.700 
08:25	68.3	68.3	68.3	96	67.1	0	1	292	0.00	29.700 
08:30	68.3	68.3	68.3	96	67.1	0	1	292	0.00	29.699 
08:35	68.3	68.3	68.3	96	67.1	0	1	292	0.00	29.699 
08:40	68.3	68.3	68.3	96	67.1	0	1	292	0.00	29.699 
08:45	68.3	68.3	68.3	96	67.1	0	1	292	0.00	29.700 
08:50	68.3	68.3	68.3	96	67.1	0	3	270	0.01	29.700 
08:55	68.3	68.3	68.3	96	67.1	0	1	270	0.00	29.700 
09:00	68.3	68.3	68.3	96	67.1	0	1	270	0.00	29.699 
09:05	68.3	68.3	68.3	96	67.1	0	3	270	0.00	29.699 
09:10	68.3	68.3	68.3	96	67.1	0	1	270	0.00	29.699 
09:15	68.3	68.3	68.3	96	67.1	0	1	270	0.03	29.704 
09:20	68.3	68.3	68.3	96	67.1	0	1	270	0.00	29.704 
09:25	68.3	68.3	68.3	96	67.1	0	1	270	0.01	29.704 
09:30	68.3	68.3	68.3	96	67.1	0	1	270	0.01	29.716 
09:35	68.4	68.4	68.4	96	67.2	0	2	270	0.02	29.716 
09:40	68.4	68.4	68.4	96	67.2	0	1	270	0.02	29.716 
09:45	68.4	68.4	68.4	96	67.2	2	10	270	0.02	29.724 
09:50	66.8	66.8	66.8	96	65.6	4	9	292	0.00	29.724 
09:55	65.8	65.8	65.8	96	64.6	5	11	270	0.01	29.724 
10:00	65.2	65.2	65.2	96	64.0	4	9	292	0.00	29.741 
10:05	64.3	64.3	64.3	96	63.1	4	9	292	0.00	29.741 
10:10	63.9	63.9	63.9	96	62.7	4	8	270	0.00	29.741 
10:15	63.5	63.5	63.5	96	62.3	3	6	292	0.00	29.753 
10:20	63.4	63.4	63.4	96	62.2	3	6	270	0.00	29.753 
10:25	63.2	63.2	63.2	96	62.0	3	7	292	0.00	29.753 
10:30	63.2	63.2	63.2	96	62.0	3	7	315	0.00	29.767 
10:35	63.1	63.1	63.1	96	61.9	3	9	292	0.00	29.767 
10:40	63.1	63.1	63.1	96	61.9	2	6	270	0.00	29.767 
10:45	63.1	63.1	63.1	96	61.9	3	6	270	0.00	29.776 
10:50	63.1	63.1	63.1	96	61.9	2	5	270	0.00	29.776 
10:55	63.1	63.1	63.1	96	61.9	3	6	292	0.00	29.776 
11:00	62.7	62.7	62.7	95	61.2	4	10	292	0.00	29.786 
11:05	62.7	62.7	62.7	95	61.2	5	7	270	0.00	29.786 
11:10	62.9	62.9	62.9	95	61.4	3	9	292	0.00	29.786 
11:15	63.1	63.1	63.1	95	61.6	3	6	315	0.00	29.794 
11:20	63.1	63.1	63.1	94	61.3	4	10	270	0.00	29.794 
11:25	63.4	63.4	63.4	93	61.3	2	7	292	0.00	29.794 
11:30	63.5	63.5	63.5	92	61.1	3	10	270	0.00	29.803 
11:35	63.7	63.7	63.7	90	60.7	4	6	270	0.00	29.803 
11:40	64.0	64.0	64.0	89	60.7	3	6	292	0.00	29.803 
11:45	64.3	64.3	64.3	87	60.3	2	6	270	0.00	29.813 
11:50	64.3	64.3	64.3	86	60.0	3	6	292	0.00	29.813 
11:55	64.7	64.7	64.7	84	59.7	4	9	292	0.00	29.813 
12:00	64.7	64.7	64.7	83	59.4	4	6	270	0.00	29.820 
12:05	64.5	64.5	64.5	81	58.5	4	9	270	0.00	29.820 
12:10	65.0	65.0	65.0	80	58.7	4	6	292	0.00	29.820 
12:15	65.5	65.5	65.5	78	58.5	4	10	270	0.00	29.830 
12:20	65.8	65.8	65.8	76	58.0	5	10	292	0.00	29.830 
12:25	66.1	66.1	66.1	76	58.3	5	10	292	0.00	29.830 
12:30	66.3	66.3	66.3	74	57.8	4	10	292	0.00	29.833 
12:35	66.6	66.6	66.6	75	58.4	3	7	292	0.00	29.833 
12:40	67.4	67.4	67.4	73	58.4	3	6	292	0.00	29.833 
12:45	67.6	67.6	67.6	70	57.5	4	9	292	0.00	29.843 
12:50	67.6	67.6	67.6	70	57.5	5	10	338	0.00	29.843 
12:55	67.9	67.9	67.9	70	57.7	4	7	315	0.00	29.843 
13:00	68.1	68.1	68.1	68	57.1	4	10	315	0.00	29.847 
13:05	68.4	68.4	68.4	67	57.0	4	7	270	0.00	29.847 
13:10	68.4	68.4	68.4	66	56.6	4	9	292	0.00	29.847 
13:15	67.9	67.9	67.9	65	55.7	4	10	315	0.00	29.859 
13:20	67.9	67.9	67.9	67	56.5	3	7	338	0.00	29.859 
13:25	68.1	68.1	68.1	66	56.3	3	8	292	0.00	29.859 
13:30	68.6	68.6	68.6	68	57.6	3	7	292	0.00	29.861 
13:35	69.1	69.1	69.1	66	57.3	3	6	292	0.00	29.861 
13:40	68.6	68.6	68.6	65	56.4	4	7	292	0.00	29.861 
13:45	68.3	68.3	68.3	66	56.5	4	9	292	0.00	29.866 
13:50	68.8	68.8	68.8	65	56.5	3	6	292	0.00	29.866 
13:55	69.1	69.1	69.1	62	55.5	4	9	315	0.00	29.866 
14:00	68.8	68.8	68.8	60	54.3	4	12	292	0.00	29.872 
14:05	68.3	68.3	68.3	61	54.3	3	7	338	0.00	29.872 
14:10	68.3	68.3	68.3	60	53.9	3	7	292	0.00	29.872 
14:15	68.3	68.3	68.3	60	53.9	4	9	292	0.00	29.879 
14:20	68.1	68.1	68.1	60	53.7	3	6	292	0.00	29.879 
14:25	67.9	67.9	67.9	61	53.9	3	6	270	0.00	29.879 
14:30	68.4	68.4	68.4	60	54.0	3	7	292	0.00	29.879 
14:35	68.9	68.9	68.9	59	54.0	3	7	270	0.00	29.879 
14:40	69.4	69.4	69.4	59	54.4	2	9	292	0.00	29.879 
14:45	69.8	69.8	69.8	58	54.3	2	7	315	0.00	29.877 
14:50	69.9	69.9	69.9	58	54.4	3	10	292	0.00	29.877 
14:55	69.4	69.4	69.4	56	53.0	4	7	292	0.00	29.877 
15:00	68.8	68.8	68.8	58	53.4	4	9	292	0.00	29.882 
15:05	68.4	68.4	68.4	59	53.5	3	8	292	0.00	29.882 
15:10	68.1	68.1	68.1	59	53.2	3	11	292	0.00	29.882 
15:15	67.9	67.9	67.9	58	52.6	4	10	315	0.00	29.895 
15:20	68.3	68.3	68.3	58	52.9	3	7	292	0.00	29.895 
15:25	68.3	68.3	68.3	60	53.9	3	6	270	0.00	29.895 
15:30	68.4	68.4	68.4	60	54.0	3	7	270	0.00	29.897 
15:35	68.8	68.8	68.8	62	55.2	2	6	292	0.00	29.897 
15:40	69.6	69.6	69.6	60	55.1	2	4	292	0.00	29.897 
15:45	69.8	69.8	69.8	56	53.4	4	9	292	0.00	29.896 
15:50	69.8	69.8	69.8	55	52.9	4	10	292	0.00	29.896 
15:55	69.8	69.8	69.8	58	54.3	2	6	292	0.00	29.896 
16:00	69.9	69.9	69.9	57	54.0	3	7	270	0.00	29.902 
16:05	69.9	69.9	69.9	56	53.5	3	7	292	0.00	29.902 
16:10	70.1	70.1	70.1	56	53.7	2	5	315	0.00	29.902 
16:15	70.1	70.1	70.1	53	52.2	3	8	315	0.00	29.908 
16:20	69.6	69.6	69.6	51	50.7	4	11	315	0.00	29.908 
16:25	69.4	69.4	69.4	53	51.5	3	5	270	0.00	29.908 
16:30	69.3	69.3	69.3	54	51.9	3	7	292	0.00	29.914 
16:35	68.9	68.9	68.9	55	52.1	3	7	292	0.00	29.914 
16:40	68.9	68.9	68.9	55	52.1	2	6	292	0.00	29.914 
16:45	68.8	68.8	68.8	54	51.5	2	6	292	0.00	29.917 
16:50	68.3	68.3	68.3	55	51.5	3	9	315	0.00	29.917 
16:55	67.9	67.9	67.9	57	52.1	2	6	315	0.00	29.917 
17:00	67.9	67.9	67.9	55	51.1	2	6	292	0.00	29.924 
17:05	67.9	67.9	67.9	56	51.6	2	6	338	0.00	29.924 
17:10	67.9	67.9	67.9	55	51.1	3	9	292	0.00	29.924 
17:15	67.9	67.9	67.9	54	50.6	3	5	292	0.00	29.928 
17:20	67.8	67.8	67.8	55	51.0	3	6	292	0.00	29.928 
17:25	67.9	67.9	67.9	54	50.6	2	5	270	0.00	29.928 
17:30	68.4	68.4	68.4	52	50.1	3	9	315	0.00	29.935 
17:35	68.3	68.3	68.3	53	50.5	3	10	292	0.00	29.935 
17:40	68.3	68.3	68.3	53	50.5	3	6	292	0.00	29.935 
17:45	68.3	68.3	68.3	53	50.5	3	6	292	0.00	29.941 
17:50	68.3	68.3	68.3	53	50.5	2	5	292	0.00	29.941 
17:55	68.4	68.4	68.4	52	50.1	2	5	292	0.00	29.941 
18:00	68.1	68.1	68.1	52	49.8	3	6	292	0.00	29.944 
18:05	67.9	67.9	67.9	53	50.1	2	5	292	0.00	29.944 
18:10	67.8	67.8	67.8	53	50.0	3	9	270	0.00	29.944 
18:15	67.4	67.4	67.4	53	49.7	3	7	292	0.00	29.946 
18:20	66.9	66.9	66.9	54	49.7	2	5	292	0.00	29.946 
18:25	66.3	66.3	66.3	56	50.1	2	8	338	0.00	29.946 
18:30	66.1	66.1	66.1	57	50.4	1	5	292	0.00	29.960 
18:35	66.0	66.0	66.0	56	49.8	2	5	292	0.00	29.960 
18:40	65.8	65.8	65.8	58	50.6	1	3	270	0.00	29.960 
18:45	65.6	65.6	65.6	58	50.4	1	4	292	0.00	29.961 
18:50	65.5	65.5	65.5	58	50.3	1	7	315	0.00	29.961 
18:55	65.5	65.5	65.5	58	50.3	1	3	315	0.00	29.961 
19:00	65.5	65.5	65.5	59	50.8	2	4	292	0.00	29.963 
19:05	65.5	65.5	65.5	59	50.8	1	5	292	0.00	29.963 
19:10	65.3	65.3	65.3	59	50.6	1	4	292	0.00	29.963 
19:15	65.3	65.3	65.3	59	50.6	1	3	292	0.00	29.969 
19:20	65.2	65.2	65.2	60	51.0	1	4	292	0.00	29.969 
19:25	64.8	64.8	64.8	61	51.0	0	2	292	0.00	29.969 
19:30	64.7	64.7	64.7	61	50.9	2	5	338	0.00	29.977 
19:35	64.5	64.5	64.5	62	51.2	1	4	292	0.00	29.977 
19:40	64.3	64.3	64.3	61	50.6	2	5	292	0.00	29.977 
19:45	64.2	64.2	64.2	62	50.9	1	3	292	0.00	29.979 
19:50	63.9	63.9	63.9	62	50.6	0	2	292	0.00	29.979 
19:55	63.7	63.7	63.7	62	50.4	1	3	292	0.00	29.979 
20:00	63.5	63.5	63.5	63	50.7	0	3	292	0.00	29.983 
20:05	63.2	63.2	63.2	63	50.4	0	1	315	0.00	29.983 
20:10	63.1	63.1	63.1	64	50.7	0	2	315	0.00	29.983 
20:15	62.7	62.7	62.7	65	50.8	0	1	315	0.00	29.993 
20:20	62.4	62.4	62.4	65	50.5	0	2	315	0.00	29.993 
20:25	62.4	62.4	62.4	65	50.5	1	3	315	0.00	29.993 
20:30	62.3	62.3	62.3	66	50.8	0	3	315	0.00	29.997 
20:35	62.1	62.1	62.1	67	51.0	0	1	315	0.00	29.997 
20:40	61.8	61.8	61.8	67	50.7	0	1	315	0.00	29.997 
20:45	61.6	61.6	61.6	68	50.9	0	2	315	0.00	30.006 
20:50	61.5	61.5	61.5	69	51.2	0	1	315	0.00	30.006 
20:55	61.2	61.2	61.2	69	50.9	0	2	315	0.00	30.006 
21:00	61.0	61.0	61.0	70	51.1	0	1	315	0.00	30.014 
21:05	60.9	60.9	60.9	70	51.0	0	0	---	0.00	30.014 
21:10	60.7	60.7	60.7	71	51.2	0	1	315	0.00	30.014 
21:15	60.5	60.5	60.5	71	51.0	0	1	315	0.00	30.021 
21:20	60.2	60.2	60.2	72	51.1	0	0	---	0.00	30.021 
21:25	60.1	60.1	60.1	73	51.4	0	0	---	0.00	30.021 
21:30	59.8	59.8	59.8	74	51.5	0	0	---	0.00	30.029 
21:35	59.6	59.6	59.6	74	51.3	0	1	315	0.00	30.029 
21:40	59.5	59.5	59.5	75	51.6	0	1	315	0.00	30.029 
21:45	59.3	59.3	59.3	75	51.4	0	1	315	0.00	30.034 
21:50	59.3	59.3	59.3	75	51.4	0	1	315	0.00	30.034 
21:55	59.2	59.2	59.2	75	51.3	0	1	315	0.00	30.034 
22:00	59.2	59.2	59.2	75	51.3	0	1	315	0.00	30.044 
22:05	59.0	59.0	59.0	75	51.1	0	1	315	0.00	30.044 
22:10	58.9	58.9	58.9	75	51.0	0	0	---	0.00	30.044 
22:15	58.7	58.7	58.7	76	51.2	0	0	---	0.00	30.048 
22:20	58.6	58.6	58.6	76	51.1	0	0	---	0.00	30.048 
22:25	58.3	58.3	58.3	77	51.1	0	0	---	0.00	30.048 
22:30	58.0	58.0	58.0	78	51.2	0	0	---	0.00	30.052 
22:35	57.6	57.6	57.6	78	50.8	0	1	315	0.00	30.052 
22:40	57.5	57.5	57.5	79	51.0	0	0	---	0.00	30.052 
22:45	57.3	57.3	57.3	79	50.8	0	0	---	0.00	30.056 
22:50	57.2	57.2	57.2	79	50.7	0	0	---	0.00	30.056 
22:55	57.2	57.2	57.2	80	51.1	0	0	---	0.00	30.056 
23:00	57.0	57.0	57.0	80	50.9	0	0	---	0.00	30.060 
23:05	56.9	56.9	56.9	80	50.8	0	1	315	0.00	30.060 
23:10	56.9	56.9	56.9	80	50.8	0	0	---	0.00	30.060 
23:15	56.7	56.7	56.7	81	50.9	0	1	315	0.00	30.063 
23:20	56.7	56.7	56.7	81	50.9	0	0	---	0.00	30.063 
23:25	56.6	56.6	56.6	81	50.8	0	1	315	0.00	30.063 
23:30	56.6	56.6	56.6	81	50.8	0	1	315	0.00	30.064 
23:35	56.5	56.5	56.5	81	50.7	0	0	---	0.00	30.064 
23:40	56.3	56.3	56.3	81	50.5	0	0	---	0.00	30.064 
23:45	56.2	56.2	56.2	82	50.8	0	0	---	0.00	30.066 
23:50	56.0	56.0	56.0	82	50.6	0	0	---	0.00	30.066 
23:55	55.7	55.7	55.7	83	50.6	0	0	---	0.00	30.066 

CoCoRaHS
IN-AL-39
A2 Web Hosting
Creative Commons License
GoDaddy
search engine by freefind advanced

loaded 2018-11-13 16:59:50 • last modified 2010-11-18 10:43:29
Privacy PolicyDisclaimer
• wx.awcolley.com is powered by PmWiki v.2002016 •
• all content (unless otherwise noted) © 2018 A W Colley